sensor_id;sensor_type;location;lat;lon;timestamp;P1;durP1;ratioP1;P2;durP2;ratioP2
41436;SDS011;27178;49.460;10.850;2023-02-26T00:01:51;2.23;;;1.30;;
41436;SDS011;27178;49.460;10.850;2023-02-26T00:04:27;2.07;;;1.50;;
41436;SDS011;27178;49.460;10.850;2023-02-26T00:06:56;2.67;;;1.50;;
41436;SDS011;27178;49.460;10.850;2023-02-26T00:09:25;3.57;;;1.97;;
41436;SDS011;27178;49.460;10.850;2023-02-26T00:11:53;1.50;;;1.27;;
41436;SDS011;27178;49.460;10.850;2023-02-26T00:14:22;2.03;;;1.20;;
41436;SDS011;27178;49.460;10.850;2023-02-26T00:16:54;1.93;;;1.50;;
41436;SDS011;27178;49.460;10.850;2023-02-26T00:19:35;1.40;;;1.30;;
41436;SDS011;27178;49.460;10.850;2023-02-26T00:22:04;2.10;;;1.53;;
41436;SDS011;27178;49.460;10.850;2023-02-26T00:24:32;2.13;;;1.70;;
41436;SDS011;27178;49.460;10.850;2023-02-26T00:27:01;3.43;;;1.50;;
41436;SDS011;27178;49.460;10.850;2023-02-26T00:29:29;1.50;;;1.40;;
41436;SDS011;27178;49.460;10.850;2023-02-26T00:32:00;5.07;;;1.90;;
41436;SDS011;27178;49.460;10.850;2023-02-26T00:34:29;1.90;;;1.50;;
41436;SDS011;27178;49.460;10.850;2023-02-26T00:37:02;7.13;;;1.80;;
41436;SDS011;27178;49.460;10.850;2023-02-26T00:39:40;2.40;;;1.47;;
41436;SDS011;27178;49.460;10.850;2023-02-26T00:42:18;2.27;;;1.37;;
41436;SDS011;27178;49.460;10.850;2023-02-26T00:44:47;2.57;;;1.30;;
41436;SDS011;27178;49.460;10.850;2023-02-26T00:47:19;2.33;;;1.53;;
41436;SDS011;27178;49.460;10.850;2023-02-26T00:49:56;2.27;;;1.53;;
41436;SDS011;27178;49.460;10.850;2023-02-26T00:52:35;4.27;;;1.60;;
41436;SDS011;27178;49.460;10.850;2023-02-26T00:55:08;3.33;;;1.40;;
41436;SDS011;27178;49.460;10.850;2023-02-26T00:57:36;1.87;;;1.50;;
41436;SDS011;27178;49.460;10.850;2023-02-26T01:00:05;2.27;;;1.60;;
41436;SDS011;27178;49.460;10.850;2023-02-26T01:02:36;1.83;;;1.40;;
41436;SDS011;27178;49.460;10.850;2023-02-26T01:05:07;2.50;;;1.60;;
41436;SDS011;27178;49.460;10.850;2023-02-26T01:07:37;2.60;;;1.50;;
41436;SDS011;27178;49.460;10.850;2023-02-26T01:10:11;3.90;;;1.77;;
41436;SDS011;27178;49.460;10.850;2023-02-26T01:12:40;4.13;;;1.50;;
41436;SDS011;27178;49.460;10.850;2023-02-26T01:15:10;4.53;;;1.60;;
41436;SDS011;27178;49.460;10.850;2023-02-26T01:17:42;2.70;;;1.40;;
41436;SDS011;27178;49.460;10.850;2023-02-26T01:20:15;2.07;;;1.40;;
41436;SDS011;27178;49.460;10.850;2023-02-26T01:22:47;4.93;;;1.90;;
41436;SDS011;27178;49.460;10.850;2023-02-26T01:25:22;3.97;;;1.70;;
41436;SDS011;27178;49.460;10.850;2023-02-26T01:27:53;2.30;;;1.37;;
41436;SDS011;27178;49.460;10.850;2023-02-26T01:30:23;2.17;;;1.57;;
41436;SDS011;27178;49.460;10.850;2023-02-26T01:32:56;1.73;;;1.40;;
41436;SDS011;27178;49.460;10.850;2023-02-26T01:35:31;2.33;;;1.50;;
41436;SDS011;27178;49.460;10.850;2023-02-26T01:38:10;3.00;;;1.30;;
41436;SDS011;27178;49.460;10.850;2023-02-26T01:40:55;2.37;;;1.30;;
41436;SDS011;27178;49.460;10.850;2023-02-26T01:43:48;2.03;;;1.37;;
41436;SDS011;27178;49.460;10.850;2023-02-26T01:46:23;1.90;;;1.50;;
41436;SDS011;27178;49.460;10.850;2023-02-26T01:48:59;1.60;;;1.50;;
41436;SDS011;27178;49.460;10.850;2023-02-26T01:51:48;2.93;;;1.20;;
41436;SDS011;27178;49.460;10.850;2023-02-26T01:54:17;2.10;;;1.20;;
41436;SDS011;27178;49.460;10.850;2023-02-26T01:56:48;3.47;;;1.27;;
41436;SDS011;27178;49.460;10.850;2023-02-26T01:59:19;1.30;;;1.20;;
41436;SDS011;27178;49.460;10.850;2023-02-26T02:01:50;2.33;;;1.30;;
41436;SDS011;27178;49.460;10.850;2023-02-26T02:04:22;2.40;;;1.40;;
41436;SDS011;27178;49.460;10.850;2023-02-26T02:06:52;2.47;;;1.20;;
41436;SDS011;27178;49.460;10.850;2023-02-26T02:09:21;2.10;;;1.30;;
41436;SDS011;27178;49.460;10.850;2023-02-26T02:12:00;3.17;;;1.57;;
41436;SDS011;27178;49.460;10.850;2023-02-26T02:14:38;1.60;;;1.40;;
41436;SDS011;27178;49.460;10.850;2023-02-26T02:17:16;1.93;;;1.13;;
41436;SDS011;27178;49.460;10.850;2023-02-26T02:19:58;5.30;;;1.60;;
41436;SDS011;27178;49.460;10.850;2023-02-26T02:23:07;1.10;;;1.00;;
41436;SDS011;27178;49.460;10.850;2023-02-26T02:25:58;1.97;;;1.20;;
41436;SDS011;27178;49.460;10.850;2023-02-26T02:28:59;1.47;;;1.27;;
41436;SDS011;27178;49.460;10.850;2023-02-26T02:31:44;2.20;;;1.40;;
41436;SDS011;27178;49.460;10.850;2023-02-26T02:34:17;1.70;;;1.13;;
41436;SDS011;27178;49.460;10.850;2023-02-26T02:36:50;1.13;;;1.03;;
41436;SDS011;27178;49.460;10.850;2023-02-26T02:39:24;1.83;;;1.30;;
41436;SDS011;27178;49.460;10.850;2023-02-26T02:41:57;3.60;;;1.50;;
41436;SDS011;27178;49.460;10.850;2023-02-26T02:44:30;1.83;;;1.00;;
41436;SDS011;27178;49.460;10.850;2023-02-26T02:47:03;3.30;;;1.20;;
41436;SDS011;27178;49.460;10.850;2023-02-26T02:49:35;1.13;;;1.03;;
41436;SDS011;27178;49.460;10.850;2023-02-26T02:52:10;2.97;;;1.20;;
41436;SDS011;27178;49.460;10.850;2023-02-26T02:54:44;4.30;;;1.33;;
41436;SDS011;27178;49.460;10.850;2023-02-26T02:57:16;2.30;;;1.60;;
41436;SDS011;27178;49.460;10.850;2023-02-26T02:59:49;1.60;;;0.90;;
41436;SDS011;27178;49.460;10.850;2023-02-26T03:02:22;2.10;;;1.10;;
41436;SDS011;27178;49.460;10.850;2023-02-26T03:04:56;2.93;;;1.40;;
41436;SDS011;27178;49.460;10.850;2023-02-26T03:07:25;2.60;;;1.17;;
41436;SDS011;27178;49.460;10.850;2023-02-26T03:09:54;1.30;;;0.90;;
41436;SDS011;27178;49.460;10.850;2023-02-26T03:12:24;2.17;;;1.20;;
41436;SDS011;27178;49.460;10.850;2023-02-26T03:14:52;2.70;;;1.20;;
41436;SDS011;27178;49.460;10.850;2023-02-26T03:17:23;2.67;;;1.20;;
41436;SDS011;27178;49.460;10.850;2023-02-26T03:20:02;2.57;;;1.23;;
41436;SDS011;27178;49.460;10.850;2023-02-26T03:22:39;1.73;;;1.00;;
41436;SDS011;27178;49.460;10.850;2023-02-26T03:25:13;6.17;;;1.73;;
41436;SDS011;27178;49.460;10.850;2023-02-26T03:27:46;1.53;;;1.10;;
41436;SDS011;27178;49.460;10.850;2023-02-26T03:30:23;1.10;;;1.00;;
41436;SDS011;27178;49.460;10.850;2023-02-26T03:33:02;1.33;;;1.10;;
41436;SDS011;27178;49.460;10.850;2023-02-26T03:35:37;1.17;;;1.07;;
41436;SDS011;27178;49.460;10.850;2023-02-26T03:38:12;2.87;;;1.30;;
41436;SDS011;27178;49.460;10.850;2023-02-26T03:40:45;2.67;;;1.13;;
41436;SDS011;27178;49.460;10.850;2023-02-26T03:43:18;1.80;;;1.20;;
41436;SDS011;27178;49.460;10.850;2023-02-26T03:45:50;2.90;;;1.10;;
41436;SDS011;27178;49.460;10.850;2023-02-26T03:48:25;1.10;;;1.00;;
41436;SDS011;27178;49.460;10.850;2023-02-26T03:50:56;1.83;;;1.10;;
41436;SDS011;27178;49.460;10.850;2023-02-26T03:53:29;1.83;;;1.13;;
41436;SDS011;27178;49.460;10.850;2023-02-26T03:56:02;2.10;;;1.40;;
41436;SDS011;27178;49.460;10.850;2023-02-26T03:58:34;2.83;;;1.30;;
41436;SDS011;27178;49.460;10.850;2023-02-26T04:01:03;1.17;;;0.93;;
41436;SDS011;27178;49.460;10.850;2023-02-26T04:03:37;2.00;;;1.20;;
41436;SDS011;27178;49.460;10.850;2023-02-26T04:06:10;2.07;;;1.20;;
41436;SDS011;27178;49.460;10.850;2023-02-26T04:08:39;2.93;;;1.37;;
41436;SDS011;27178;49.460;10.850;2023-02-26T04:11:10;1.83;;;1.40;;
41436;SDS011;27178;49.460;10.850;2023-02-26T04:13:43;1.03;;;0.90;;
41436;SDS011;27178;49.460;10.850;2023-02-26T04:16:12;1.70;;;1.10;;
41436;SDS011;27178;49.460;10.850;2023-02-26T04:18:42;1.23;;;1.13;;
41436;SDS011;27178;49.460;10.850;2023-02-26T04:21:11;2.77;;;1.20;;
41436;SDS011;27178;49.460;10.850;2023-02-26T04:23:40;3.83;;;1.37;;
41436;SDS011;27178;49.460;10.850;2023-02-26T04:26:09;3.13;;;1.70;;
41436;SDS011;27178;49.460;10.850;2023-02-26T04:28:38;2.20;;;1.13;;
41436;SDS011;27178;49.460;10.850;2023-02-26T04:31:07;2.80;;;1.30;;
41436;SDS011;27178;49.460;10.850;2023-02-26T04:33:36;2.50;;;1.60;;
41436;SDS011;27178;49.460;10.850;2023-02-26T04:36:06;2.10;;;1.43;;
41436;SDS011;27178;49.460;10.850;2023-02-26T04:38:35;1.50;;;1.27;;
41436;SDS011;27178;49.460;10.850;2023-02-26T04:41:04;1.87;;;1.47;;
41436;SDS011;27178;49.460;10.850;2023-02-26T04:43:33;1.40;;;1.30;;
41436;SDS011;27178;49.460;10.850;2023-02-26T04:46:03;1.33;;;1.17;;
41436;SDS011;27178;49.460;10.850;2023-02-26T04:48:31;2.60;;;1.40;;
41436;SDS011;27178;49.460;10.850;2023-02-26T04:51:00;2.00;;;1.40;;
41436;SDS011;27178;49.460;10.850;2023-02-26T04:53:30;2.20;;;0.97;;
41436;SDS011;27178;49.460;10.850;2023-02-26T04:55:58;4.27;;;1.50;;
41436;SDS011;27178;49.460;10.850;2023-02-26T04:58:27;1.40;;;1.10;;
41436;SDS011;27178;49.460;10.850;2023-02-26T05:00:56;2.07;;;1.37;;
41436;SDS011;27178;49.460;10.850;2023-02-26T05:03:24;3.33;;;1.13;;
41436;SDS011;27178;49.460;10.850;2023-02-26T05:05:53;2.50;;;1.30;;
41436;SDS011;27178;49.460;10.850;2023-02-26T05:08:21;1.57;;;1.23;;
41436;SDS011;27178;49.460;10.850;2023-02-26T05:10:51;1.57;;;1.20;;
41436;SDS011;27178;49.460;10.850;2023-02-26T05:13:20;2.53;;;1.87;;
41436;SDS011;27178;49.460;10.850;2023-02-26T05:15:49;3.80;;;1.90;;
41436;SDS011;27178;49.460;10.850;2023-02-26T05:18:20;2.50;;;2.00;;
41436;SDS011;27178;49.460;10.850;2023-02-26T05:20:50;1.83;;;1.50;;
41436;SDS011;27178;49.460;10.850;2023-02-26T05:23:20;2.77;;;1.90;;
41436;SDS011;27178;49.460;10.850;2023-02-26T05:25:49;2.23;;;1.70;;
41436;SDS011;27178;49.460;10.850;2023-02-26T05:28:21;2.80;;;1.67;;
41436;SDS011;27178;49.460;10.850;2023-02-26T05:30:50;3.13;;;1.23;;
41436;SDS011;27178;49.460;10.850;2023-02-26T05:33:19;2.97;;;1.40;;
41436;SDS011;27178;49.460;10.850;2023-02-26T05:35:47;1.70;;;1.17;;
41436;SDS011;27178;49.460;10.850;2023-02-26T05:38:16;4.00;;;1.47;;
41436;SDS011;27178;49.460;10.850;2023-02-26T05:40:44;1.63;;;1.10;;
41436;SDS011;27178;49.460;10.850;2023-02-26T05:43:14;1.90;;;1.37;;
41436;SDS011;27178;49.460;10.850;2023-02-26T05:45:42;1.93;;;1.30;;
41436;SDS011;27178;49.460;10.850;2023-02-26T05:48:11;2.47;;;1.60;;
41436;SDS011;27178;49.460;10.850;2023-02-26T05:50:40;2.83;;;1.60;;
41436;SDS011;27178;49.460;10.850;2023-02-26T05:53:08;2.50;;;1.67;;
41436;SDS011;27178;49.460;10.850;2023-02-26T05:55:36;1.60;;;1.47;;
41436;SDS011;27178;49.460;10.850;2023-02-26T05:58:04;2.30;;;1.30;;
41436;SDS011;27178;49.460;10.850;2023-02-26T06:00:34;2.30;;;1.50;;
41436;SDS011;27178;49.460;10.850;2023-02-26T06:03:03;2.33;;;1.40;;
41436;SDS011;27178;49.460;10.850;2023-02-26T06:05:32;2.83;;;1.83;;
41436;SDS011;27178;49.460;10.850;2023-02-26T06:08:01;1.30;;;1.20;;
41436;SDS011;27178;49.460;10.850;2023-02-26T06:10:30;2.10;;;1.30;;
41436;SDS011;27178;49.460;10.850;2023-02-26T06:12:59;3.40;;;1.50;;
41436;SDS011;27178;49.460;10.850;2023-02-26T06:15:27;3.23;;;1.43;;
41436;SDS011;27178;49.460;10.850;2023-02-26T06:17:57;3.20;;;1.67;;
41436;SDS011;27178;49.460;10.850;2023-02-26T06:20:25;2.80;;;1.70;;
41436;SDS011;27178;49.460;10.850;2023-02-26T06:22:54;2.30;;;1.30;;
41436;SDS011;27178;49.460;10.850;2023-02-26T06:25:22;4.80;;;1.90;;
41436;SDS011;27178;49.460;10.850;2023-02-26T06:27:50;2.43;;;1.53;;
41436;SDS011;27178;49.460;10.850;2023-02-26T06:30:19;2.63;;;1.60;;
41436;SDS011;27178;49.460;10.850;2023-02-26T06:32:49;2.70;;;1.80;;
41436;SDS011;27178;49.460;10.850;2023-02-26T06:35:19;4.33;;;1.40;;
41436;SDS011;27178;49.460;10.850;2023-02-26T06:37:47;2.97;;;1.70;;
41436;SDS011;27178;49.460;10.850;2023-02-26T06:40:16;2.17;;;1.57;;
41436;SDS011;27178;49.460;10.850;2023-02-26T06:42:44;3.27;;;1.70;;
41436;SDS011;27178;49.460;10.850;2023-02-26T06:45:12;1.60;;;1.40;;
41436;SDS011;27178;49.460;10.850;2023-02-26T06:47:41;1.60;;;1.40;;
41436;SDS011;27178;49.460;10.850;2023-02-26T06:50:10;1.50;;;1.30;;
41436;SDS011;27178;49.460;10.850;2023-02-26T06:52:39;2.13;;;1.70;;
41436;SDS011;27178;49.460;10.850;2023-02-26T06:55:08;1.40;;;1.30;;
41436;SDS011;27178;49.460;10.850;2023-02-26T06:57:38;2.60;;;1.40;;
41436;SDS011;27178;49.460;10.850;2023-02-26T07:00:08;2.30;;;1.50;;
41436;SDS011;27178;49.460;10.850;2023-02-26T07:02:37;1.60;;;1.17;;
41436;SDS011;27178;49.460;10.850;2023-02-26T07:05:05;2.70;;;1.40;;
41436;SDS011;27178;49.460;10.850;2023-02-26T07:07:35;3.50;;;1.63;;
41436;SDS011;27178;49.460;10.850;2023-02-26T07:10:05;2.97;;;2.00;;
41436;SDS011;27178;49.460;10.850;2023-02-26T07:12:34;2.97;;;1.53;;
41436;SDS011;27178;49.460;10.850;2023-02-26T07:15:03;3.63;;;1.60;;
41436;SDS011;27178;49.460;10.850;2023-02-26T07:17:33;2.30;;;1.80;;
41436;SDS011;27178;49.460;10.850;2023-02-26T07:20:01;3.20;;;1.70;;
41436;SDS011;27178;49.460;10.850;2023-02-26T07:22:35;1.77;;;1.57;;
41436;SDS011;27178;49.460;10.850;2023-02-26T07:25:06;9.13;;;2.10;;
41436;SDS011;27178;49.460;10.850;2023-02-26T07:27:34;2.33;;;1.57;;
41436;SDS011;27178;49.460;10.850;2023-02-26T07:30:04;2.60;;;1.57;;
41436;SDS011;27178;49.460;10.850;2023-02-26T07:32:34;3.77;;;1.80;;
41436;SDS011;27178;49.460;10.850;2023-02-26T07:35:03;2.73;;;1.70;;
41436;SDS011;27178;49.460;10.850;2023-02-26T07:37:32;2.83;;;1.30;;
41436;SDS011;27178;49.460;10.850;2023-02-26T07:40:00;2.43;;;1.60;;
41436;SDS011;27178;49.460;10.850;2023-02-26T07:42:31;2.57;;;1.63;;
41436;SDS011;27178;49.460;10.850;2023-02-26T07:44:59;1.97;;;1.43;;
41436;SDS011;27178;49.460;10.850;2023-02-26T07:47:28;2.40;;;1.40;;
41436;SDS011;27178;49.460;10.850;2023-02-26T07:49:56;1.37;;;1.17;;
41436;SDS011;27178;49.460;10.850;2023-02-26T07:52:25;2.13;;;1.50;;
41436;SDS011;27178;49.460;10.850;2023-02-26T07:54:54;2.80;;;1.70;;
41436;SDS011;27178;49.460;10.850;2023-02-26T07:57:22;4.47;;;3.07;;
41436;SDS011;27178;49.460;10.850;2023-02-26T07:59:52;4.10;;;2.97;;
41436;SDS011;27178;49.460;10.850;2023-02-26T08:02:20;2.80;;;2.40;;
41436;SDS011;27178;49.460;10.850;2023-02-26T08:04:49;5.03;;;2.40;;
41436;SDS011;27178;49.460;10.850;2023-02-26T08:07:18;3.73;;;2.13;;
41436;SDS011;27178;49.460;10.850;2023-02-26T08:09:46;2.23;;;2.03;;
41436;SDS011;27178;49.460;10.850;2023-02-26T08:12:15;3.27;;;2.17;;
41436;SDS011;27178;49.460;10.850;2023-02-26T08:14:43;2.97;;;1.73;;
41436;SDS011;27178;49.460;10.850;2023-02-26T08:17:14;3.53;;;1.97;;
41436;SDS011;27178;49.460;10.850;2023-02-26T08:19:42;1.70;;;1.57;;
41436;SDS011;27178;49.460;10.850;2023-02-26T08:22:11;2.13;;;1.87;;
41436;SDS011;27178;49.460;10.850;2023-02-26T08:24:39;4.87;;;4.03;;
41436;SDS011;27178;49.460;10.850;2023-02-26T08:27:08;4.87;;;3.73;;
41436;SDS011;27178;49.460;10.850;2023-02-26T08:29:38;7.13;;;3.60;;
41436;SDS011;27178;49.460;10.850;2023-02-26T08:32:07;5.40;;;4.43;;
41436;SDS011;27178;49.460;10.850;2023-02-26T08:34:37;6.20;;;4.30;;
41436;SDS011;27178;49.460;10.850;2023-02-26T08:37:06;6.10;;;4.90;;
41436;SDS011;27178;49.460;10.850;2023-02-26T08:39:37;5.30;;;4.50;;
41436;SDS011;27178;49.460;10.850;2023-02-26T08:42:06;4.73;;;3.83;;
41436;SDS011;27178;49.460;10.850;2023-02-26T08:44:35;3.97;;;2.87;;
41436;SDS011;27178;49.460;10.850;2023-02-26T08:47:04;2.70;;;2.37;;
41436;SDS011;27178;49.460;10.850;2023-02-26T08:49:33;3.33;;;2.83;;
41436;SDS011;27178;49.460;10.850;2023-02-26T08:52:02;3.23;;;2.60;;
41436;SDS011;27178;49.460;10.850;2023-02-26T08:54:30;5.63;;;2.90;;
41436;SDS011;27178;49.460;10.850;2023-02-26T08:56:59;4.13;;;3.27;;
41436;SDS011;27178;49.460;10.850;2023-02-26T08:59:28;3.33;;;2.87;;
41436;SDS011;27178;49.460;10.850;2023-02-26T09:01:57;3.97;;;3.10;;
41436;SDS011;27178;49.460;10.850;2023-02-26T09:04:25;6.63;;;4.03;;
41436;SDS011;27178;49.460;10.850;2023-02-26T09:06:56;3.80;;;3.10;;
41436;SDS011;27178;49.460;10.850;2023-02-26T09:09:26;4.03;;;3.10;;
41436;SDS011;27178;49.460;10.850;2023-02-26T09:11:54;5.17;;;3.27;;
41436;SDS011;27178;49.460;10.850;2023-02-26T09:14:22;2.77;;;2.50;;
41436;SDS011;27178;49.460;10.850;2023-02-26T09:16:51;3.00;;;2.70;;
41436;SDS011;27178;49.460;10.850;2023-02-26T09:19:19;3.10;;;2.47;;
41436;SDS011;27178;49.460;10.850;2023-02-26T09:21:48;3.03;;;2.37;;
41436;SDS011;27178;49.460;10.850;2023-02-26T09:24:17;2.33;;;1.93;;
41436;SDS011;27178;49.460;10.850;2023-02-26T09:26:46;4.53;;;3.93;;
41436;SDS011;27178;49.460;10.850;2023-02-26T09:29:15;6.93;;;4.20;;
41436;SDS011;27178;49.460;10.850;2023-02-26T09:31:43;3.43;;;3.13;;
41436;SDS011;27178;49.460;10.850;2023-02-26T09:34:11;2.60;;;2.40;;
41436;SDS011;27178;49.460;10.850;2023-02-26T09:36:40;2.23;;;2.03;;
41436;SDS011;27178;49.460;10.850;2023-02-26T09:39:11;2.20;;;2.00;;
41436;SDS011;27178;49.460;10.850;2023-02-26T09:41:40;1.43;;;1.33;;
41436;SDS011;27178;49.460;10.850;2023-02-26T09:44:19;1.67;;;1.57;;
41436;SDS011;27178;49.460;10.850;2023-02-26T09:46:52;1.50;;;1.40;;
41436;SDS011;27178;49.460;10.850;2023-02-26T09:49:37;1.27;;;1.17;;
41436;SDS011;27178;49.460;10.850;2023-02-26T09:52:17;3.63;;;1.50;;
41436;SDS011;27178;49.460;10.850;2023-02-26T09:54:51;2.70;;;1.50;;
41436;SDS011;27178;49.460;10.850;2023-02-26T09:57:28;1.90;;;1.70;;
41436;SDS011;27178;49.460;10.850;2023-02-26T09:59:59;1.90;;;1.60;;
41436;SDS011;27178;49.460;10.850;2023-02-26T10:02:31;2.17;;;1.87;;
41436;SDS011;27178;49.460;10.850;2023-02-26T10:05:09;1.43;;;1.30;;
41436;SDS011;27178;49.460;10.850;2023-02-26T10:07:47;1.40;;;1.30;;
41436;SDS011;27178;49.460;10.850;2023-02-26T10:10:26;1.10;;;1.00;;
41436;SDS011;27178;49.460;10.850;2023-02-26T10:13:01;1.47;;;1.37;;
41436;SDS011;27178;49.460;10.850;2023-02-26T10:15:34;1.70;;;1.40;;
41436;SDS011;27178;49.460;10.850;2023-02-26T10:18:07;2.50;;;2.30;;
41436;SDS011;27178;49.460;10.850;2023-02-26T10:20:41;2.43;;;2.23;;
41436;SDS011;27178;49.460;10.850;2023-02-26T10:23:19;2.20;;;2.00;;
41436;SDS011;27178;49.460;10.850;2023-02-26T10:26:00;2.30;;;2.10;;
41436;SDS011;27178;49.460;10.850;2023-02-26T10:28:37;2.57;;;2.37;;
41436;SDS011;27178;49.460;10.850;2023-02-26T10:31:16;2.40;;;2.20;;
41436;SDS011;27178;49.460;10.850;2023-02-26T10:33:55;1.70;;;1.60;;
41436;SDS011;27178;49.460;10.850;2023-02-26T10:36:34;1.37;;;1.27;;
41436;SDS011;27178;49.460;10.850;2023-02-26T10:39:14;1.30;;;1.20;;
41436;SDS011;27178;49.460;10.850;2023-02-26T10:41:54;1.27;;;1.17;;
41436;SDS011;27178;49.460;10.850;2023-02-26T10:44:26;1.10;;;1.10;;
41436;SDS011;27178;49.460;10.850;2023-02-26T10:47:04;1.03;;;1.00;;
41436;SDS011;27178;49.460;10.850;2023-02-26T10:49:43;0.83;;;0.83;;
41436;SDS011;27178;49.460;10.850;2023-02-26T10:52:19;0.90;;;0.90;;
41436;SDS011;27178;49.460;10.850;2023-02-26T10:57:52;2.40;;;1.00;;
41436;SDS011;27178;49.460;10.850;2023-02-26T11:00:26;1.20;;;0.90;;
41436;SDS011;27178;49.460;10.850;2023-02-26T11:02:57;1.00;;;1.00;;
41436;SDS011;27178;49.460;10.850;2023-02-26T11:05:26;0.90;;;0.90;;
41436;SDS011;27178;49.460;10.850;2023-02-26T11:07:57;2.43;;;2.10;;
41436;SDS011;27178;49.460;10.850;2023-02-26T11:10:36;1.57;;;1.47;;
41436;SDS011;27178;49.460;10.850;2023-02-26T11:13:08;1.80;;;1.50;;
41436;SDS011;27178;49.460;10.850;2023-02-26T11:15:38;1.20;;;1.10;;
41436;SDS011;27178;49.460;10.850;2023-02-26T11:18:10;1.77;;;1.40;;
41436;SDS011;27178;49.460;10.850;2023-02-26T11:20:44;1.70;;;1.60;;
41436;SDS011;27178;49.460;10.850;2023-02-26T11:23:13;2.60;;;1.70;;
41436;SDS011;27178;49.460;10.850;2023-02-26T11:25:45;1.70;;;1.60;;
41436;SDS011;27178;49.460;10.850;2023-02-26T11:28:21;2.17;;;1.67;;
41436;SDS011;27178;49.460;10.850;2023-02-26T11:30:52;1.60;;;1.50;;
41436;SDS011;27178;49.460;10.850;2023-02-26T11:33:26;1.97;;;1.50;;
41436;SDS011;27178;49.460;10.850;2023-02-26T11:35:57;2.13;;;1.93;;
41436;SDS011;27178;49.460;10.850;2023-02-26T11:38:28;1.60;;;1.50;;
41436;SDS011;27178;49.460;10.850;2023-02-26T11:40:58;3.07;;;2.73;;
41436;SDS011;27178;49.460;10.850;2023-02-26T11:43:32;4.97;;;4.03;;
41436;SDS011;27178;49.460;10.850;2023-02-26T11:46:03;7.43;;;6.03;;
41436;SDS011;27178;49.460;10.850;2023-02-26T11:48:36;6.27;;;5.00;;
41436;SDS011;27178;49.460;10.850;2023-02-26T11:51:07;4.07;;;3.63;;
41436;SDS011;27178;49.460;10.850;2023-02-26T11:53:42;3.90;;;3.47;;
41436;SDS011;27178;49.460;10.850;2023-02-26T11:56:18;3.30;;;2.90;;
41436;SDS011;27178;49.460;10.850;2023-02-26T11:58:52;2.60;;;2.40;;
41436;SDS011;27178;49.460;10.850;2023-02-26T12:01:22;2.60;;;2.40;;
41436;SDS011;27178;49.460;10.850;2023-02-26T12:03:58;3.13;;;2.83;;
41436;SDS011;27178;49.460;10.850;2023-02-26T12:06:28;3.13;;;2.53;;
41436;SDS011;27178;49.460;10.850;2023-02-26T12:08:57;1.80;;;1.70;;
41436;SDS011;27178;49.460;10.850;2023-02-26T12:14:31;1.57;;;1.47;;
41436;SDS011;27178;49.460;10.850;2023-02-26T12:17:12;1.43;;;1.30;;
41436;SDS011;27178;49.460;10.850;2023-02-26T12:19:56;1.30;;;1.07;;
41436;SDS011;27178;49.460;10.850;2023-02-26T12:22:47;1.30;;;1.20;;
41436;SDS011;27178;49.460;10.850;2023-02-26T12:25:24;1.25;;;1.08;;
41436;SDS011;27178;49.460;10.850;2023-02-26T12:28:06;0.70;;;0.70;;
41436;SDS011;27178;49.460;10.850;2023-02-26T12:30:53;1.08;;;0.75;;
41436;SDS011;27178;49.460;10.850;2023-02-26T12:33:37;0.93;;;0.90;;
41436;SDS011;27178;49.460;10.850;2023-02-26T12:36:19;0.90;;;0.90;;
41436;SDS011;27178;49.460;10.850;2023-02-26T12:39:16;1.33;;;1.20;;
41436;SDS011;27178;49.460;10.850;2023-02-26T12:42:04;1.00;;;1.00;;
41436;SDS011;27178;49.460;10.850;2023-02-26T12:44:47;1.53;;;1.20;;
41436;SDS011;27178;49.460;10.850;2023-02-26T12:47:30;1.07;;;0.93;;
41436;SDS011;27178;49.460;10.850;2023-02-26T12:50:15;1.33;;;1.00;;
41436;SDS011;27178;49.460;10.850;2023-02-26T12:53:04;1.97;;;1.00;;
41436;SDS011;27178;49.460;10.850;2023-02-26T12:55:54;0.77;;;0.77;;
41436;SDS011;27178;49.460;10.850;2023-02-26T12:58:37;1.43;;;0.87;;
41436;SDS011;27178;49.460;10.850;2023-02-26T13:04:40;1.30;;;1.13;;
41436;SDS011;27178;49.460;10.850;2023-02-26T13:07:42;1.07;;;0.90;;
41436;SDS011;27178;49.460;10.850;2023-02-26T13:10:21;0.85;;;0.85;;
41436;SDS011;27178;49.460;10.850;2023-02-26T13:12:58;1.10;;;1.00;;
41436;SDS011;27178;49.460;10.850;2023-02-26T13:15:46;0.98;;;0.88;;
41436;SDS011;27178;49.460;10.850;2023-02-26T13:18:23;1.55;;;0.93;;
41436;SDS011;27178;49.460;10.850;2023-02-26T13:21:01;2.27;;;1.03;;
41436;SDS011;27178;49.460;10.850;2023-02-26T13:23:34;1.90;;;1.17;;
41436;SDS011;27178;49.460;10.850;2023-02-26T13:26:06;1.00;;;0.90;;
41436;SDS011;27178;49.460;10.850;2023-02-26T13:28:38;1.20;;;1.10;;
41436;SDS011;27178;49.460;10.850;2023-02-26T13:31:11;1.00;;;1.00;;
41436;SDS011;27178;49.460;10.850;2023-02-26T13:33:43;0.80;;;0.80;;
41436;SDS011;27178;49.460;10.850;2023-02-26T13:36:13;1.20;;;1.10;;
41436;SDS011;27178;49.460;10.850;2023-02-26T13:38:45;2.05;;;1.25;;
41436;SDS011;27178;49.460;10.850;2023-02-26T13:41:25;1.52;;;1.10;;
41436;SDS011;27178;49.460;10.850;2023-02-26T13:44:13;1.02;;;0.93;;
41436;SDS011;27178;49.460;10.850;2023-02-26T13:46:58;1.00;;;0.90;;
41436;SDS011;27178;49.460;10.850;2023-02-26T13:49:46;1.08;;;0.98;;
41436;SDS011;27178;49.460;10.850;2023-02-26T13:52:23;0.75;;;0.68;;
41436;SDS011;27178;49.460;10.850;2023-02-26T13:54:53;1.10;;;1.00;;
41436;SDS011;27178;49.460;10.850;2023-02-26T13:57:33;1.30;;;1.20;;
41436;SDS011;27178;49.460;10.850;2023-02-26T14:00:08;2.65;;;1.60;;
41436;SDS011;27178;49.460;10.850;2023-02-26T14:02:50;2.35;;;1.30;;
41436;SDS011;27178;49.460;10.850;2023-02-26T14:14:32;0.93;;;0.93;;
41436;SDS011;27178;49.460;10.850;2023-02-26T14:17:25;1.67;;;0.90;;
41436;SDS011;27178;49.460;10.850;2023-02-26T14:22:52;1.20;;;1.10;;
41436;SDS011;27178;49.460;10.850;2023-02-26T14:25:37;1.10;;;1.00;;
41436;SDS011;27178;49.460;10.850;2023-02-26T14:28:31;1.50;;;1.10;;
41436;SDS011;27178;49.460;10.850;2023-02-26T14:31:16;1.30;;;1.20;;
41436;SDS011;27178;49.460;10.850;2023-02-26T14:33:56;0.93;;;0.80;;
41436;SDS011;27178;49.460;10.850;2023-02-26T14:36:40;1.20;;;0.98;;
41436;SDS011;27178;49.460;10.850;2023-02-26T14:39:20;0.65;;;0.65;;
41436;SDS011;27178;49.460;10.850;2023-02-26T14:41:55;1.40;;;0.80;;
41436;SDS011;27178;49.460;10.850;2023-02-26T14:44:27;1.02;;;0.80;;
41436;SDS011;27178;49.460;10.850;2023-02-26T14:46:58;0.93;;;0.82;;
41436;SDS011;27178;49.460;10.850;2023-02-26T14:49:29;0.82;;;0.82;;
41436;SDS011;27178;49.460;10.850;2023-02-26T14:52:03;1.65;;;0.90;;
41436;SDS011;27178;49.460;10.850;2023-02-26T14:54:55;0.85;;;0.85;;
41436;SDS011;27178;49.460;10.850;2023-02-26T14:57:40;0.90;;;0.90;;
41436;SDS011;27178;49.460;10.850;2023-02-26T15:00:18;1.10;;;1.00;;
41436;SDS011;27178;49.460;10.850;2023-02-26T15:06:14;2.90;;;1.42;;
41436;SDS011;27178;49.460;10.850;2023-02-26T15:08:56;1.08;;;0.98;;
41436;SDS011;27178;49.460;10.850;2023-02-26T15:11:55;0.90;;;0.90;;
41436;SDS011;27178;49.460;10.850;2023-02-26T15:17:36;1.20;;;1.10;;
41436;SDS011;27178;49.460;10.850;2023-02-26T15:20:21;0.90;;;0.90;;
41436;SDS011;27178;49.460;10.850;2023-02-26T15:23:02;1.67;;;1.33;;
41436;SDS011;27178;49.460;10.850;2023-02-26T15:25:40;1.60;;;1.20;;
41436;SDS011;27178;49.460;10.850;2023-02-26T15:28:11;0.90;;;0.80;;
41436;SDS011;27178;49.460;10.850;2023-02-26T15:30:46;1.40;;;1.30;;
41436;SDS011;27178;49.460;10.850;2023-02-26T15:33:17;1.40;;;1.30;;
41436;SDS011;27178;49.460;10.850;2023-02-26T15:35:47;1.70;;;1.60;;
41436;SDS011;27178;49.460;10.850;2023-02-26T15:38:18;1.70;;;1.60;;